Flight Track Log - Related Links

Times and Time Zones

All times are in EST time to prevent confusion due to time zone crossing. See the N388AC flight status page for this flight to view local times or setup timezone preferences in your user account.


Time Position Orientation Groundspeed Altitude Reporting Facility
EST Latitude Longitude Course Direction KTS MPH feet Rate Location/Type
Thu 08:13:51 AM 26.7789 -80.2236 336° Northwest 266 306 4,600  Level Miami Center
Thu 08:14:51 AM 26.8297 -80.2856 313° West 283 326 6,500 1,950 Climbing Miami Center
Thu 08:15:51 AM 26.8828 -80.3408 317° Northwest 286 329 8,500 1,950 Climbing Miami Center
Thu 08:16:51 AM 26.9550 -80.3756 337° Northwest 281 323 10,400 1,750 Climbing Miami Center
Thu 08:17:51 AM 27.0500 -80.4181 338° Northwest 314 361 12,000 1,450 Climbing Miami Center
Thu 08:18:00 AM 27.4701 -80.3027 336° Northwest  Level Estimated
Thu 08:18:51 AM 27.1450 -80.4561 340° North 344 396 13,300  Level Miami Center
Thu 08:19:51 AM 27.2442 -80.4964 340° North 369 425 15,400 2,150 Climbing Miami Center
Thu 08:20:51 AM 27.3392 -80.5369 339° North 387 445 17,600 2,000 Climbing Miami Center
Thu 08:21:51 AM 27.4467 -80.5847 338° Northwest 403 464 19,400 1,900 Climbing Miami Center
Thu 08:22:51 AM 27.5603 -80.6306 340° North 416 479 21,400 2,000 Climbing Miami Center
Thu 08:23:51 AM 27.6781 -80.6789 340° North 431 496 23,400 2,000 Climbing Miami Center
Thu 08:24:51 AM 27.7956 -80.7300 339° North 441 507 25,400 2,000 Climbing Miami Center
Thu 08:25:51 AM 27.9061 -80.8089 328° Northwest 447 514 27,400 1,800 Climbing Miami Center
Thu 08:26:51 AM 27.9975 -80.9036 318° Northwest 454 522 29,000 1,550 Climbing Miami Center
Thu 08:27:51 AM 28.0989 -81.0039 319° Northwest 465 535 30,500 1,600 Climbing Miami Center
Thu 08:28:51 AM 28.2222 -81.0697 335° Northwest 471 542 32,200 1,951 Climbing Miami Center
Thu 08:31:17 AM 28.5389 -81.1675 345° North 484 557 37,200 1,981 Climbing Jacksonville Center
Thu 08:32:17 AM 28.6686 -81.1936 350° North 478 550 39,000 900 Climbing Jacksonville Center
Thu 08:33:17 AM 28.8006 -81.2175 351° North 473 544 39,000  Level Jacksonville Center
Thu 08:34:17 AM 28.9364 -81.2414 351° North 479 551 39,000  Level Jacksonville Center
Thu 08:35:17 AM 29.0725 -81.2747 348° North 484 557 39,000  Level Jacksonville Center
Thu 08:36:17 AM 29.2044 -81.3083 347° North 484 557 39,000  Level Jacksonville Center
Thu 08:37:17 AM 29.3386 -81.3394 349° North 489 563 39,000  Level Jacksonville Center
Thu 08:38:17 AM 29.4725 -81.3706 349° North 489 563 39,000  Level Jacksonville Center
Thu 08:39:17 AM 29.6086 -81.3994 350° North 489 563 39,000  Level Jacksonville Center
Thu 08:40:17 AM 29.7444 -81.4333 348° North 489 563 39,000  Level Jacksonville Center
Thu 08:41:17 AM 29.8828 -81.4650 349° North 489 563 39,000  Level Jacksonville Center
Thu 08:42:17 AM 30.0167 -81.4964 349° North 489 563 39,000  Level Jacksonville Center
Thu 08:43:17 AM 30.1653 -81.5303 349° North 489 563 39,000  Level Jacksonville Center
Thu 08:44:17 AM 30.3014 -81.5597 349° North 489 563 39,000  Level Jacksonville Center
Thu 08:45:17 AM 30.4394 -81.5939 348° North 489 563 39,000  Level Jacksonville Center
Thu 08:46:17 AM 30.5714 -81.6236 349° North 489 563 39,000  Level Jacksonville Center
Thu 08:47:17 AM 30.7053 -81.6581 348° North 489 563 39,000  Level Jacksonville Center
Thu 08:48:17 AM 30.8372 -81.6900 348° North 484 557 39,000  Level Jacksonville Center
Thu 08:49:17 AM 30.9689 -81.7222 348° North 484 557 39,000  Level Jacksonville Center
Thu 08:50:17 AM 31.1008 -81.7547 348° North 484 557 39,000  Level Jacksonville Center
Thu 08:51:17 AM 31.2264 -81.7872 348° North 464 534 39,000  Level Jacksonville Center
Thu 08:52:17 AM 31.3539 -81.8172 349° North 454 522 39,000  Level Jacksonville Center
Thu 08:53:17 AM 31.4692 -81.8453 348° North 459 528 39,000  Level Jacksonville Center
Thu 08:54:17 AM 31.6072 -81.8778 349° North 464 534 39,000  Level Jacksonville Center
Thu 08:55:17 AM 31.7347 -81.9081 349° North 464 534 39,000 -650 Level Jacksonville Center
Thu 08:56:17 AM 31.8497 -81.9386 347° North 470 541 37,700 -2,150 Descending Jacksonville Center
Thu 08:57:17 AM 31.9939 -81.9642 351° North 470 541 34,700 -2,935 Descending Jacksonville Center
Thu 08:59:21 AM 32.2653 -81.9558 North 508 585 28,700 -3,000 Descending Atlanta Center
Thu 09:00:21 AM 32.4114 -81.9500 North 515 593 25,500 -2,350 Descending Atlanta Center
Thu 09:01:21 AM 32.5450 -81.9444 North 504 580 24,000 -900 Descending Atlanta Center
Thu 09:02:21 AM 32.6722 -81.9389 North 477 549 23,700 -1,850 Descending Atlanta Center
Thu 09:03:21 AM 32.8036 -81.9383 360° North 441 507 20,300 -3,200 Descending Atlanta Center
Thu 09:04:21 AM 32.9203 -81.9331 North 428 493 17,300 -3,150 Descending Atlanta Center
Thu 09:05:21 AM 33.0289 -81.9253 North 404 465 14,000 -3,100 Descending Atlanta Center
Thu 09:06:21 AM 33.1269 -81.9231 North 372 428 11,100 -2,550 Descending Atlanta Center
Thu 09:07:21 AM 33.2081 -81.9061 10° North 331 381 8,900 -2,233 Descending Atlanta Center
Thu 09:09:21 AM 33.3556 -81.8628 14° North 272 313 4,400 -2,000 Descending Atlanta Center
Thu 09:10:21 AM 33.4222 -81.8611 North 248 285 2,900 -1,050 Descending Atlanta Center
Thu 09:11:21 AM 33.4644 -81.8897 331° Northwest 197 227 2,300 -500 Descending Atlanta Center
Thu 09:12:21 AM 33.4672 -81.9344 274° West 139 160 1,900 -400 Descending Atlanta Center

Login

Don't have an account? Register now (free) for customized features, flight alerts, and more!